createdAt,value
2018-02-20T00:01:58.512Z,39.90
2018-02-20T00:04:25.984Z,39.13
2018-02-20T00:06:53.436Z,38.57
2018-02-20T00:09:20.874Z,39.50
2018-02-20T00:11:48.366Z,39.50
2018-02-20T00:14:15.808Z,38.03
2018-02-20T00:16:43.249Z,40.00
2018-02-20T00:19:10.728Z,39.07
2018-02-20T00:21:38.164Z,40.10
2018-02-20T00:24:05.642Z,36.90
2018-02-20T00:26:33.096Z,37.33
2018-02-20T00:29:00.549Z,36.47
2018-02-20T00:31:27.987Z,38.30
2018-02-20T00:33:55.472Z,35.43
2018-02-20T00:36:22.901Z,33.83
2018-02-20T00:38:50.336Z,31.53
2018-02-20T00:41:18.560Z,33.23
2018-02-20T00:43:46.016Z,32.90
2018-02-20T00:46:13.464Z,31.33
2018-02-20T00:48:40.887Z,35.07
2018-02-20T00:51:09.097Z,33.47
2018-02-20T00:53:36.562Z,34.07
2018-02-20T00:56:04.028Z,34.90
2018-02-20T00:58:31.466Z,33.77
2018-02-20T01:00:58.918Z,34.17
2018-02-20T01:03:26.353Z,33.97
2018-02-20T01:05:54.616Z,34.43
2018-02-20T01:08:22.830Z,34.57
2018-02-20T01:10:50.272Z,34.90
2018-02-20T01:13:17.753Z,34.10
2018-02-20T01:15:45.208Z,33.57
2018-02-20T01:18:12.671Z,35.17
2018-02-20T01:20:40.103Z,35.33
2018-02-20T01:23:07.596Z,35.90
2018-02-20T01:25:35.033Z,35.83
2018-02-20T01:28:02.476Z,32.93
2018-02-20T01:30:29.961Z,38.00
2018-02-20T01:32:57.424Z,37.03
2018-02-20T01:35:24.864Z,38.03
2018-02-20T01:37:52.334Z,37.63
2018-02-20T01:40:19.792Z,37.67
2018-02-20T01:42:47.268Z,36.33
2018-02-20T01:45:14.815Z,35.10
2018-02-20T01:47:42.256Z,37.17
2018-02-20T01:50:09.694Z,36.73
2018-02-20T01:52:37.132Z,35.20
2018-02-20T01:55:05.346Z,38.37
2018-02-20T01:57:32.784Z,37.40
2018-02-20T02:00:00.224Z,37.23
2018-02-20T02:02:27.662Z,36.60
2018-02-20T02:04:55.100Z,37.13
2018-02-20T02:07:22.536Z,35.80
2018-02-20T02:09:49.996Z,35.97
2018-02-20T02:12:18.451Z,34.93
2018-02-20T02:14:45.893Z,34.73
2018-02-20T02:17:13.392Z,34.33
2018-02-20T02:19:40.862Z,38.83
2018-02-20T02:22:08.305Z,36.90
2018-02-20T02:24:35.744Z,36.47
2018-02-20T02:27:03.215Z,36.33
2018-02-20T02:29:30.675Z,37.37
2018-02-20T02:31:58.128Z,36.83
2018-02-20T02:34:25.596Z,38.00
2018-02-20T02:36:53.055Z,37.50
2018-02-20T02:39:20.506Z,36.83
2018-02-20T02:41:47.958Z,37.47
2018-02-20T02:44:15.397Z,37.10
2018-02-20T02:46:42.837Z,36.97
2018-02-20T02:49:10.329Z,36.50
2018-02-20T02:51:37.772Z,40.03
2018-02-20T02:54:05.208Z,43.93
2018-02-20T02:56:32.642Z,40.87
2018-02-20T02:59:00.879Z,39.50
2018-02-20T03:01:28.422Z,35.60
2018-02-20T03:03:55.983Z,38.63
2018-02-20T03:06:23.452Z,36.80
2018-02-20T03:08:50.884Z,38.40
2018-02-20T03:11:18.321Z,37.83
2018-02-20T03:13:46.535Z,36.73
2018-02-20T03:16:13.960Z,36.73
2018-02-20T03:18:41.396Z,37.60
2018-02-20T03:21:09.609Z,37.63
2018-02-20T03:23:37.041Z,35.63
2018-02-20T03:26:05.240Z,37.97
2018-02-20T03:28:32.689Z,36.27
2018-02-20T03:31:00.122Z,35.33
2018-02-20T03:33:28.345Z,37.43
2018-02-20T03:35:55.807Z,35.60
2018-02-20T03:38:23.247Z,35.20
2018-02-20T03:40:50.684Z,36.83
2018-02-20T03:43:18.174Z,37.70
2018-02-20T03:45:45.605Z,36.23
2018-02-20T03:48:13.037Z,36.80
2018-02-20T03:50:41.250Z,37.00
2018-02-20T03:53:08.688Z,35.53
2018-02-20T03:55:36.303Z,36.87
2018-02-20T03:58:03.736Z,37.07
2018-02-20T04:00:31.164Z,37.03
2018-02-20T04:02:58.652Z,35.40
2018-02-20T04:05:26.104Z,37.00
2018-02-20T04:07:53.549Z,35.20
2018-02-20T04:10:21.040Z,35.97
2018-02-20T04:12:48.467Z,35.07
2018-02-20T04:15:15.905Z,34.53
2018-02-20T04:17:43.342Z,35.10
2018-02-20T04:20:11.556Z,35.03
2018-02-20T04:22:38.984Z,34.80
2018-02-20T04:25:07.196Z,33.43
2018-02-20T04:27:34.696Z,34.17
2018-02-20T04:30:02.128Z,33.90
2018-02-20T04:32:29.681Z,33.73
2018-02-20T04:34:57.480Z,34.83
2018-02-20T04:37:25.004Z,34.60
2018-02-20T04:39:52.446Z,34.70
2018-02-20T04:42:19.897Z,33.60
2018-02-20T04:44:47.369Z,34.77
2018-02-20T04:47:14.800Z,34.57
2018-02-20T04:49:42.248Z,36.93
2018-02-20T04:52:10.458Z,35.23
2018-02-20T04:54:37.912Z,36.77
2018-02-20T04:57:05.372Z,37.13
2018-02-20T04:59:32.808Z,40.87
2018-02-20T05:02:00.249Z,41.87
2018-02-20T05:04:27.685Z,41.40
2018-02-20T05:06:55.897Z,43.37
2018-02-20T05:09:23.375Z,45.63
2018-02-20T05:11:50.824Z,44.77
2018-02-20T05:14:18.261Z,42.47
2018-02-20T05:16:45.701Z,43.73
2018-02-20T05:19:13.927Z,45.30
2018-02-20T05:21:41.389Z,43.00
2018-02-20T05:24:08.826Z,44.43
2018-02-20T05:26:36.284Z,42.03
2018-02-20T05:29:03.757Z,43.97
2018-02-20T05:31:31.197Z,42.73
2018-02-20T05:33:58.665Z,42.13
2018-02-20T05:36:26.096Z,44.10
2018-02-20T05:38:53.533Z,44.40
2018-02-20T05:41:21.757Z,43.53
2018-02-20T05:43:49.198Z,41.77
2018-02-20T05:46:16.657Z,45.37
2018-02-20T05:48:44.130Z,44.47
2018-02-20T05:51:11.571Z,43.80
2018-02-20T05:53:39.044Z,44.17
2018-02-20T05:56:06.501Z,45.50
2018-02-20T05:58:33.960Z,42.87
2018-02-20T06:01:01.405Z,45.97
2018-02-20T06:03:28.857Z,44.60
2018-02-20T06:05:56.280Z,44.27
2018-02-20T06:08:24.488Z,45.17
2018-02-20T06:10:51.942Z,45.90
2018-02-20T06:13:19.418Z,45.93
2018-02-20T06:15:46.882Z,46.83
2018-02-20T06:18:14.332Z,49.80
2018-02-20T06:20:41.790Z,49.60
2018-02-20T06:23:09.293Z,47.90
2018-02-20T06:25:36.689Z,48.83
2018-02-20T06:28:04.126Z,48.27
2018-02-20T06:30:32.316Z,48.53
2018-02-20T06:32:59.773Z,50.37
2018-02-20T06:35:27.242Z,49.17
2018-02-20T06:37:54.736Z,51.60
2018-02-20T06:40:22.204Z,42.73
2018-02-20T06:42:49.636Z,40.20
2018-02-20T06:45:17.215Z,40.73
2018-02-20T06:47:44.619Z,42.67
2018-02-20T06:50:12.099Z,41.70
2018-02-20T06:52:39.936Z,40.37
2018-02-20T06:55:07.364Z,41.67
2018-02-20T06:57:35.556Z,41.80
2018-02-20T07:00:03.098Z,42.53
2018-02-20T07:02:31.316Z,43.20
2018-02-20T07:04:58.752Z,47.87
2018-02-20T07:07:26.193Z,52.57
2018-02-20T07:09:54.421Z,54.50
2018-02-20T07:12:21.992Z,56.97
2018-02-20T07:14:49.434Z,56.00
2018-02-20T07:17:16.883Z,54.37
2018-02-20T07:19:44.316Z,54.80
2018-02-20T07:22:11.798Z,52.90
2018-02-20T07:24:39.373Z,43.90
2018-02-20T07:27:06.812Z,40.30
2018-02-20T07:29:34.255Z,40.93
2018-02-20T07:32:01.729Z,41.97
2018-02-20T07:34:29.197Z,40.70
2018-02-20T07:36:56.650Z,40.80
2018-02-20T07:39:24.098Z,39.60
2018-02-20T07:41:51.538Z,41.40
2018-02-20T07:44:19.013Z,41.00
2018-02-20T07:46:46.465Z,45.80
2018-02-20T07:49:13.928Z,47.30
2018-02-20T07:51:41.376Z,46.73
2018-02-20T07:54:08.809Z,43.60
2018-02-20T07:56:36.308Z,46.00
2018-02-20T07:59:03.747Z,43.00
2018-02-20T08:01:31.209Z,44.23
2018-02-20T08:03:58.644Z,44.17
2018-02-20T08:06:26.075Z,43.17
2018-02-20T08:08:54.308Z,45.37
2018-02-20T08:11:21.790Z,46.03
2018-02-20T08:13:49.284Z,46.57
2018-02-20T08:16:16.778Z,48.80
2018-02-20T08:18:44.200Z,46.43
2018-02-20T08:21:11.721Z,49.50
2018-02-20T08:23:39.176Z,46.67
2018-02-20T08:26:06.596Z,52.77
2018-02-20T08:28:34.040Z,53.97
2018-02-20T08:31:01.477Z,52.00
2018-02-20T08:33:29.680Z,54.93
2018-02-20T08:35:57.117Z,54.80
2018-02-20T08:38:24.552Z,56.60
2018-02-20T08:40:52.757Z,55.77
2018-02-20T08:43:20.194Z,53.50
2018-02-20T08:45:48.398Z,54.00
2018-02-20T08:48:15.833Z,51.47
2018-02-20T08:50:43.272Z,53.93
2018-02-20T08:53:11.488Z,51.83
2018-02-20T08:55:38.953Z,48.83
2018-02-20T08:58:06.397Z,53.30
2018-02-20T09:00:33.845Z,51.87
2018-02-20T09:03:01.281Z,53.30
2018-02-20T09:05:29.473Z,50.07
2018-02-20T09:07:56.917Z,50.17
2018-02-20T09:10:25.117Z,52.20
2018-02-20T09:12:52.592Z,50.90
2018-02-20T09:15:20.148Z,53.53
2018-02-20T09:17:47.579Z,51.00
2018-02-20T09:20:15.025Z,49.77
2018-02-20T09:22:42.466Z,50.80
2018-02-20T09:25:09.896Z,49.60
2018-02-20T09:27:38.094Z,48.60
2018-02-20T09:30:05.540Z,51.43
2018-02-20T09:32:33.023Z,52.80
2018-02-20T09:35:00.481Z,49.57
2018-02-20T09:37:27.892Z,48.97
2018-02-20T09:39:56.080Z,47.80
2018-02-20T09:42:23.564Z,48.00
2018-02-20T09:44:51.014Z,48.83
2018-02-20T09:47:18.445Z,49.37
2018-02-20T09:49:46.653Z,49.33
2018-02-20T09:52:14.262Z,48.97
2018-02-20T09:54:41.684Z,47.33
2018-02-20T09:57:09.128Z,48.73
2018-02-20T09:59:36.585Z,50.60
2018-02-20T10:02:04.016Z,47.97
2018-02-20T10:04:31.456Z,47.10
2018-02-20T10:06:59.662Z,47.33
2018-02-20T10:09:27.132Z,48.07
2018-02-20T10:11:54.623Z,48.37
2018-02-20T10:14:22.047Z,47.40
2018-02-20T10:16:49.473Z,45.83
2018-02-20T10:19:16.956Z,40.27
2018-02-20T10:21:44.397Z,43.70
2018-02-20T10:24:11.904Z,39.93
2018-02-20T10:26:39.545Z,42.57
2018-02-20T10:29:06.990Z,38.73
2018-02-20T10:31:34.453Z,34.93
2018-02-20T10:34:01.882Z,36.40
2018-02-20T10:36:29.369Z,39.47
2018-02-20T10:38:56.797Z,38.40
2018-02-20T10:41:24.238Z,36.73
2018-02-20T10:43:52.444Z,37.93
2018-02-20T10:46:19.893Z,37.83
2018-02-20T10:48:47.328Z,39.10
2018-02-20T10:51:15.538Z,36.03
2018-02-20T10:53:42.976Z,36.80
2018-02-20T10:56:10.453Z,34.20
2018-02-20T10:58:38.735Z,33.03
2018-02-20T11:01:06.168Z,31.17
2018-02-20T11:03:33.648Z,31.90
2018-02-20T11:06:01.096Z,32.40
2018-02-20T11:08:28.575Z,31.10
2018-02-20T11:10:56.186Z,29.13
2018-02-20T11:13:23.656Z,27.03
2018-02-20T11:15:51.829Z,28.70
2018-02-20T11:18:19.304Z,27.97
2018-02-20T11:20:46.772Z,27.43
2018-02-20T11:23:14.223Z,27.90
2018-02-20T11:25:41.675Z,26.03
2018-02-20T11:28:09.852Z,28.77
2018-02-20T11:30:37.317Z,28.17
2018-02-20T11:33:04.823Z,29.30
2018-02-20T11:35:33.026Z,28.10
2018-02-20T11:38:00.458Z,28.17
2018-02-20T11:40:28.653Z,28.33
2018-02-20T11:42:56.100Z,27.73
2018-02-20T11:45:24.290Z,27.23
2018-02-20T11:47:51.724Z,27.63
2018-02-20T11:50:19.941Z,28.23
2018-02-20T11:52:47.396Z,28.13
2018-02-20T11:55:14.877Z,27.47
2018-02-20T11:57:42.326Z,27.50
2018-02-20T12:00:09.767Z,28.33
2018-02-20T12:02:37.191Z,28.17
2018-02-20T12:05:05.415Z,28.03
2018-02-20T12:07:32.952Z,28.27
2018-02-20T12:10:00.360Z,28.20
2018-02-20T12:12:27.881Z,28.77
2018-02-20T12:14:55.308Z,27.40
2018-02-20T12:17:22.737Z,29.70
2018-02-20T12:19:50.953Z,29.50
2018-02-20T12:22:18.425Z,30.80
2018-02-20T12:24:45.857Z,28.40
2018-02-20T12:27:13.306Z,30.47
2018-02-20T12:29:40.804Z,28.10
2018-02-20T12:32:08.238Z,29.43
2018-02-20T12:34:35.704Z,30.80
2018-02-20T12:37:03.150Z,30.47
2018-02-20T12:39:30.569Z,30.80
2018-02-20T12:41:58.796Z,31.03
2018-02-20T12:44:26.224Z,31.17
2018-02-20T12:46:53.708Z,30.07
2018-02-20T12:49:21.145Z,30.87
2018-02-20T12:51:48.573Z,29.20
2018-02-20T12:54:16.819Z,32.67
2018-02-20T12:56:44.260Z,30.17
2018-02-20T12:59:11.808Z,31.77
2018-02-20T13:01:39.280Z,32.27
2018-02-20T13:04:06.722Z,30.83
2018-02-20T13:06:34.282Z,31.87
2018-02-20T13:09:01.709Z,33.70
2018-02-20T13:11:29.915Z,30.83
2018-02-20T13:13:57.378Z,31.40
2018-02-20T13:16:24.835Z,30.93
2018-02-20T13:18:52.277Z,32.63
2018-02-20T13:21:19.708Z,33.10
2018-02-20T13:23:47.916Z,30.70
2018-02-20T13:26:15.373Z,32.97
2018-02-20T13:28:42.840Z,31.70
2018-02-20T13:31:10.300Z,31.77
2018-02-20T13:33:37.747Z,31.43
2018-02-20T13:36:05.212Z,31.40
2018-02-20T13:38:32.640Z,30.87
2018-02-20T13:41:00.121Z,30.23
2018-02-20T13:43:27.589Z,28.87
2018-02-20T13:45:55.082Z,28.67
2018-02-20T13:48:22.593Z,25.40
2018-02-20T13:50:50.032Z,26.90
2018-02-20T13:53:17.519Z,24.40
2018-02-20T13:55:44.949Z,26.10
2018-02-20T13:58:12.381Z,25.77
2018-02-20T14:00:40.573Z,26.40
2018-02-20T14:03:08.064Z,26.57
2018-02-20T14:05:35.498Z,27.67
2018-02-20T14:08:02.976Z,26.00
2018-02-20T14:10:30.415Z,28.70
2018-02-20T14:12:57.851Z,28.50
2018-02-20T14:15:26.058Z,30.30
2018-02-20T14:17:53.528Z,27.53
2018-02-20T14:20:20.996Z,29.40
2018-02-20T14:22:48.431Z,27.97
2018-02-20T14:25:15.893Z,27.07
2018-02-20T14:27:43.331Z,28.80
2018-02-20T14:30:10.802Z,29.23
2018-02-20T14:32:38.265Z,28.80
2018-02-20T14:35:05.696Z,29.17
2018-02-20T14:37:33.124Z,30.07
2018-02-20T14:40:01.348Z,31.63
2018-02-20T14:42:28.800Z,32.00
2018-02-20T14:44:56.252Z,33.03
2018-02-20T14:47:23.687Z,35.20
2018-02-20T14:49:51.116Z,37.73
2018-02-20T14:52:19.349Z,37.30
2018-02-20T14:54:46.799Z,37.67
2018-02-20T14:57:14.256Z,36.67
2018-02-20T14:59:41.670Z,36.53
2018-02-20T15:02:09.108Z,38.00
2018-02-20T15:04:37.324Z,36.83
2018-02-20T15:07:04.792Z,36.80
2018-02-20T15:09:32.240Z,36.27
2018-02-20T15:11:59.704Z,38.30
2018-02-20T15:14:27.155Z,38.93
2018-02-20T15:16:54.624Z,40.00
2018-02-20T15:19:22.077Z,43.00
2018-02-20T15:21:49.516Z,40.27
2018-02-20T15:24:16.957Z,44.70
2018-02-20T15:26:44.385Z,42.63
2018-02-20T15:29:12.609Z,42.50
2018-02-20T15:31:40.066Z,41.67
2018-02-20T15:34:07.528Z,42.67
2018-02-20T15:36:34.961Z,43.37
2018-02-20T15:39:02.585Z,43.80
2018-02-20T15:41:30.821Z,42.80
2018-02-20T15:43:58.277Z,42.60
2018-02-20T15:46:25.746Z,42.47
2018-02-20T15:48:53.172Z,45.43
2018-02-20T15:51:20.609Z,42.53
2018-02-20T15:53:48.049Z,43.47
2018-02-20T15:56:16.241Z,44.40
2018-02-20T15:58:43.665Z,44.23
2018-02-20T16:01:11.884Z,45.33
2018-02-20T16:03:39.366Z,45.67
2018-02-20T16:06:06.793Z,43.77
2018-02-20T16:08:34.250Z,44.73
2018-02-20T16:11:01.717Z,47.53
2018-02-20T16:13:29.149Z,44.90
2018-02-20T16:16:12.349Z,42.53
2018-02-20T16:18:40.586Z,43.50
2018-02-20T16:21:08.032Z,44.20
2018-02-20T16:23:35.497Z,41.50
2018-02-20T16:26:02.956Z,42.70
2018-02-20T16:28:30.414Z,41.33
2018-02-20T16:30:57.842Z,41.43
2018-02-20T16:33:25.273Z,40.80
2018-02-20T16:35:53.464Z,40.37
2018-02-20T16:38:20.904Z,42.57
2018-02-20T16:40:49.129Z,40.13
2018-02-20T16:43:16.589Z,41.00
2018-02-20T16:45:44.032Z,37.60
2018-02-20T16:48:11.461Z,38.30
2018-02-20T16:50:39.694Z,40.83
2018-02-20T16:53:07.145Z,41.00
2018-02-20T16:55:34.648Z,38.10
2018-02-20T16:58:02.864Z,39.90
2018-02-20T17:00:30.322Z,37.23
2018-02-20T17:02:57.785Z,37.33
2018-02-20T17:05:25.205Z,33.63
2018-02-20T17:07:52.644Z,33.70
2018-02-20T17:10:20.870Z,32.17
2018-02-20T17:12:48.314Z,34.03
2018-02-20T17:15:15.781Z,31.90
2018-02-20T17:17:43.244Z,30.93
2018-02-20T17:20:10.790Z,31.40
2018-02-20T17:22:38.220Z,30.70
2018-02-20T17:25:06.523Z,30.17
2018-02-20T17:27:33.937Z,32.53
2018-02-20T17:30:02.256Z,31.70
2018-02-20T17:32:29.685Z,30.60
2018-02-20T17:34:57.125Z,30.70
2018-02-20T17:37:25.337Z,30.30
2018-02-20T17:39:52.756Z,30.30
2018-02-20T17:42:20.982Z,29.53
2018-02-20T17:44:48.457Z,31.47
2018-02-20T17:47:15.995Z,31.13
2018-02-20T17:49:43.420Z,31.03
2018-02-20T17:52:10.913Z,31.80
2018-02-20T17:54:38.342Z,31.97
2018-02-20T17:57:05.778Z,31.57
2018-02-20T17:59:33.976Z,31.77
2018-02-20T18:02:01.411Z,32.67
2018-02-20T18:04:29.608Z,33.47
2018-02-20T18:06:57.200Z,33.13
2018-02-20T18:09:24.621Z,34.40
2018-02-20T18:11:52.053Z,33.30
2018-02-20T18:14:20.272Z,33.53
2018-02-20T18:16:47.697Z,32.00
2018-02-20T18:19:16.006Z,33.43
2018-02-20T18:21:43.481Z,34.20
2018-02-20T18:24:10.904Z,33.30
2018-02-20T18:26:38.384Z,32.97
2018-02-20T18:29:05.833Z,39.60
2018-02-20T18:31:33.271Z,36.23
2018-02-20T18:34:00.720Z,33.63
2018-02-20T18:36:28.921Z,35.30
2018-02-20T18:38:56.379Z,36.50
2018-02-20T18:41:23.789Z,38.60
2018-02-20T18:43:51.224Z,38.63
2018-02-20T18:46:18.758Z,39.23
2018-02-20T18:48:46.228Z,38.60
2018-02-20T18:51:13.655Z,41.10
2018-02-20T18:53:41.081Z,39.73
2018-02-20T18:56:09.281Z,36.63
2018-02-20T18:58:36.725Z,38.73
2018-02-20T19:01:04.936Z,37.80
2018-02-20T19:03:32.369Z,38.33
2018-02-20T19:05:59.865Z,38.67
2018-02-20T19:08:27.308Z,39.03
2018-02-20T19:10:54.733Z,41.10
2018-02-20T19:13:22.172Z,40.00
2018-02-20T19:15:50.373Z,39.90
2018-02-20T19:18:17.856Z,38.33
2018-02-20T19:20:45.297Z,41.03
2018-02-20T19:23:12.737Z,40.37
2018-02-20T19:25:40.177Z,40.23
2018-02-20T19:28:07.612Z,39.57
2018-02-20T19:30:35.045Z,39.70
2018-02-20T19:33:02.485Z,39.97
2018-02-20T19:35:29.997Z,40.77
2018-02-20T19:37:57.512Z,40.07
2018-02-20T19:40:24.954Z,39.30
2018-02-20T19:42:52.405Z,39.33
2018-02-20T19:45:19.907Z,41.77
2018-02-20T19:47:47.330Z,41.03
2018-02-20T19:50:14.765Z,42.23
2018-02-20T19:52:42.285Z,41.97
2018-02-20T19:55:09.817Z,41.17
2018-02-20T19:57:37.365Z,41.83
2018-02-20T20:00:04.822Z,41.67
2018-02-20T20:02:32.260Z,42.27
2018-02-20T20:04:59.744Z,44.20
2018-02-20T20:07:27.187Z,42.73
2018-02-20T20:09:54.649Z,42.40
2018-02-20T20:12:22.093Z,45.23
2018-02-20T20:14:49.581Z,47.93
2018-02-20T20:17:17.010Z,46.40
2018-02-20T20:19:44.447Z,43.43
2018-02-20T20:22:12.740Z,43.43
2018-02-20T20:24:40.144Z,43.63
2018-02-20T20:27:07.584Z,42.93
2018-02-20T20:29:35.045Z,41.53
2018-02-20T20:32:02.492Z,42.10
2018-02-20T20:34:29.937Z,44.30
2018-02-20T20:36:57.369Z,48.83
2018-02-20T20:39:25.579Z,54.23
2018-02-20T20:41:53.026Z,45.73
2018-02-20T20:44:20.494Z,47.30
2018-02-20T20:46:47.955Z,46.77
2018-02-20T20:49:15.376Z,45.53
2018-02-20T20:51:42.812Z,49.33
2018-02-20T20:54:11.897Z,52.13
2018-02-20T20:56:39.420Z,56.03
2018-02-20T20:59:06.853Z,52.93
2018-02-20T21:01:34.289Z,53.60
2018-02-20T21:04:02.501Z,49.17
2018-02-20T21:06:29.932Z,50.20
2018-02-20T21:08:57.369Z,51.23
2018-02-20T21:11:25.570Z,50.00
2018-02-20T21:13:53.062Z,47.00
2018-02-20T21:16:20.488Z,47.23
2018-02-20T21:18:48.065Z,45.40
2018-02-20T21:21:15.480Z,46.77
2018-02-20T21:23:43.681Z,47.47
2018-02-20T21:26:11.120Z,49.90
2018-02-20T21:28:39.334Z,51.47
2018-02-20T21:31:06.761Z,50.60
2018-02-20T21:33:34.282Z,48.93
2018-02-20T21:36:01.749Z,51.50
2018-02-20T21:38:29.952Z,49.13
2018-02-20T21:40:57.392Z,48.57
2018-02-20T21:43:25.593Z,48.87
2018-02-20T21:45:53.022Z,47.83
2018-02-20T21:48:21.240Z,47.17
2018-02-20T21:50:48.676Z,48.27
2018-02-20T21:53:16.114Z,48.57
2018-02-20T21:55:44.334Z,48.57
2018-02-20T21:58:11.760Z,48.17
2018-02-20T22:00:39.299Z,49.53
2018-02-20T22:03:06.694Z,50.07
2018-02-20T22:05:34.128Z,49.53
2018-02-20T22:08:01.583Z,48.80
2018-02-20T22:10:29.025Z,46.87
2018-02-20T22:12:57.256Z,51.03
2018-02-20T22:15:24.673Z,58.73
2018-02-20T22:17:52.917Z,53.03
2018-02-20T22:20:20.366Z,51.23
2018-02-20T22:22:48.557Z,49.93
2018-02-20T22:25:16.036Z,49.77
2018-02-20T22:27:43.492Z,50.47
2018-02-20T22:30:10.981Z,51.90
2018-02-20T22:32:38.429Z,49.83
2018-02-20T22:35:05.984Z,50.60
2018-02-20T22:37:33.425Z,51.70
2018-02-20T22:40:00.881Z,50.30
2018-02-20T22:42:28.340Z,52.23
2018-02-20T22:44:55.791Z,50.83
2018-02-20T22:47:23.265Z,51.17
2018-02-20T22:49:50.720Z,49.33
2018-02-20T22:52:18.145Z,49.03
2018-02-20T22:54:45.581Z,51.27
2018-02-20T22:57:13.777Z,49.93
2018-02-20T22:59:41.277Z,49.47
2018-02-20T23:02:08.717Z,49.80
2018-02-20T23:04:36.224Z,50.30
2018-02-20T23:07:03.638Z,51.70
2018-02-20T23:09:31.083Z,51.40
2018-02-20T23:11:58.552Z,50.00
2018-02-20T23:14:25.992Z,49.57
2018-02-20T23:16:53.432Z,48.60
2018-02-20T23:19:20.870Z,51.93
2018-02-20T23:21:49.086Z,50.60
2018-02-20T23:24:16.513Z,52.57
2018-02-20T23:26:44.709Z,52.03
2018-02-20T23:29:12.137Z,52.80
2018-02-20T23:31:40.345Z,51.77
2018-02-20T23:34:07.779Z,52.53
2018-02-20T23:36:35.208Z,55.53
2018-02-20T23:39:02.683Z,53.63
2018-02-20T23:41:30.132Z,50.13
2018-02-20T23:43:57.565Z,50.37
2018-02-20T23:46:25.013Z,50.47
2018-02-20T23:48:53.216Z,53.67
2018-02-20T23:51:26.480Z,50.90
2018-02-20T23:53:54.788Z,52.67
2018-02-20T23:56:22.368Z,52.93
2018-02-20T23:58:49.800Z,53.37
